Terminal Aerodrome Forecast
Issued by NWS

Home | Current Version | Previous Version | Graphics & Text | Print | Product List | Glossary On
Versions: 1 2 3 4 5 6 7 8 9 10 11 12 13 14 15 16 17 18 19 20 21 22 23
000
FTUS43 KBIS 270520
TAFJMS
TAF
KJMS 270520Z 2706/2806 15004KT P6SM SCT100
     FM271000 00000KT 4SM BR SCT050
     FM271100 00000KT 2SM BR SCT050
     FM271200 00000KT 1 1/2SM BR SCT050
     FM271500 00000KT 2SM BR SCT060
     FM271600 VRB03KT P6SM SCT090
     FM272100 11007KT P6SM SCT250=

USA.gov is the U.S. government's official web portal to all federal, state and local government web resources and services.